Detroit, Alabama
Current Conditions -  °F | °C
As of 8:55 AM on Monday 24 Nov 2014 (Local Time) from KM40 Reporting Station
Broken Clouds Broken Clouds  
Wind Chill: 57°   Ceiling: 2300
Heat Index: 57°   Visibility: 9mi
Dew Point: 43°   Wind: 9mph
Humidity: 59%   Direction: 290°WNW
Pressure: 29.85"   Gusts: NA
Location:  34.03°N, 88.17°W
Report Text: KM40 241455Z AUTO 29008KT 9SM BKN023 BKN029 BKN035 14/06 A2985 RMK AO2
Loading
Personal Weather Stations






























Interactive Weather Map New forecast layout! Learn more

10-Day Weather Forecast

Advertisements
Track Severe Weather on mobile